Terminal Aerodrome Forecast
Issued by NWS Raleigh/Durham, NC

Home | Current Version | Previous Version | Text Only | Print | Product List | Glossary On
Versions: 1 2 3 4 5 6 7 8 9 10 11 12 13 14 15 16 17 18 19 20 21 22 23 24 25 26 27 28
000
FTUS42 KRAH 241739
TAFGSO
TAF
KGSO 241739Z 2418/2518 19006KT P6SM SCT040 SCT250
     FM250900 20007KT P6SM OVC050
     FM251500 22014G21KT P6SM BKN035 PROB30 2515/2518 3SM -SHRA
      BKN015=

USA.gov is the U.S. government's official web portal to all federal, state and local government web resources and services.